createdAt,value
2023-09-26T00:01:33.770Z,102259.66
2023-09-26T00:04:01.990Z,102268.47
2023-09-26T00:06:29.609Z,102260.53
2023-09-26T00:08:56.913Z,102257.88
2023-09-26T00:11:26.288Z,102256.97
2023-09-26T00:13:53.580Z,102259.63
2023-09-26T00:16:20.998Z,102257.84
2023-09-26T00:18:48.648Z,102267.56
2023-09-26T00:21:16.073Z,102266.69
2023-09-26T00:23:43.597Z,102271.09
2023-09-26T00:26:12.248Z,102273.75
2023-09-26T00:28:45.097Z,102280.81
2023-09-26T00:31:12.392Z,102273.72
2023-09-26T00:33:40.060Z,102274.59
2023-09-26T00:36:09.174Z,102266.63
2023-09-26T00:38:37.106Z,102273.72
2023-09-26T00:41:04.699Z,102277.22
2023-09-26T00:43:32.476Z,102281.66
2023-09-26T00:46:01.963Z,102275.47
2023-09-26T00:48:29.843Z,102268.34
2023-09-26T00:50:59.060Z,102258.59
2023-09-26T00:53:28.114Z,102264.81
2023-09-26T00:55:57.104Z,102255.97
2023-09-26T00:58:25.200Z,102259.47
2023-09-26T01:00:56.742Z,102254.16
2023-09-26T01:03:24.268Z,102252.41
2023-09-26T01:05:51.850Z,102253.28
2023-09-26T01:08:20.739Z,102258.56
2023-09-26T01:10:48.019Z,102266.53
2023-09-26T01:13:15.428Z,102261.22
2023-09-26T01:15:44.760Z,102257.69
2023-09-26T01:18:14.678Z,102262.13
2023-09-26T01:20:46.261Z,102270.09
2023-09-26T01:23:16.191Z,102276.28
2023-09-26T01:25:44.388Z,102274.47
2023-09-26T01:28:15.550Z,102263.00
2023-09-26T01:30:43.489Z,102255.91
2023-09-26T01:33:17.807Z,102259.44
2023-09-26T01:35:45.211Z,102252.34
2023-09-26T01:38:13.116Z,102246.16
2023-09-26T01:40:42.185Z,102241.72
2023-09-26T01:43:09.903Z,102233.72
2023-09-26T01:45:37.339Z,102236.38
2023-09-26T01:48:10.362Z,102237.19
2023-09-26T01:50:39.542Z,102238.97
2023-09-26T01:53:10.318Z,102237.16
2023-09-26T01:55:40.511Z,102240.66
2023-09-26T01:58:07.929Z,102236.22
2023-09-26T02:00:36.177Z,102232.69
2023-09-26T02:03:03.841Z,102237.97
2023-09-26T02:05:31.155Z,102231.75
2023-09-26T02:07:58.451Z,102239.69
2023-09-26T02:10:25.939Z,102233.47
2023-09-26T02:12:53.476Z,102236.09
2023-09-26T02:15:21.268Z,102244.91
2023-09-26T02:17:48.655Z,102253.75
2023-09-26T02:20:21.213Z,102251.94
2023-09-26T02:22:53.162Z,102254.63
2023-09-26T02:25:21.480Z,102249.28
2023-09-26T02:27:50.034Z,102240.41
2023-09-26T02:30:20.121Z,102234.19
2023-09-26T02:32:47.688Z,102246.56
2023-09-26T02:35:17.135Z,102245.63
2023-09-26T02:37:45.581Z,102248.28
2023-09-26T02:40:14.501Z,102246.50
2023-09-26T02:42:46.223Z,102238.53
2023-09-26T02:45:14.813Z,102235.00
2023-09-26T02:47:44.773Z,102240.25
2023-09-26T02:50:13.718Z,102234.97
2023-09-26T02:52:43.628Z,102226.97
2023-09-26T02:55:12.166Z,102223.44
2023-09-26T02:57:39.828Z,102212.75
2023-09-26T03:00:18.977Z,102214.50
2023-09-26T03:02:48.538Z,102221.53
2023-09-26T03:05:17.782Z,102216.22
2023-09-26T03:07:46.423Z,102230.38
2023-09-26T03:10:15.300Z,102223.28
2023-09-26T03:12:48.507Z,102215.31
2023-09-26T03:15:16.349Z,102218.88
2023-09-26T03:17:44.132Z,102205.59
2023-09-26T03:20:16.010Z,102202.00
2023-09-26T03:22:43.712Z,102200.22
2023-09-26T03:25:11.573Z,102209.00
2023-09-26T03:27:39.286Z,102211.59
2023-09-26T03:30:09.255Z,102217.72
2023-09-26T03:32:36.913Z,102206.19
2023-09-26T03:35:06.821Z,102201.72
2023-09-26T03:37:34.211Z,102199.00
2023-09-26T03:40:01.726Z,102205.16
2023-09-26T03:42:29.076Z,102199.78
2023-09-26T03:44:56.344Z,102211.22
2023-09-26T03:47:23.833Z,102195.31
2023-09-26T03:49:54.049Z,102194.38
2023-09-26T03:52:21.418Z,102192.56
2023-09-26T03:54:48.816Z,102186.34
2023-09-26T03:57:16.387Z,102187.19
2023-09-26T03:59:43.663Z,102183.59
2023-09-26T04:02:11.060Z,102186.19
2023-09-26T04:04:38.754Z,102185.22
2023-09-26T04:07:08.200Z,102186.06
2023-09-26T04:09:36.406Z,102179.84
2023-09-26T04:12:05.592Z,102178.94
2023-09-26T04:14:33.192Z,102177.97
2023-09-26T04:17:01.348Z,102170.88
2023-09-26T04:19:28.800Z,102183.19
2023-09-26T04:21:56.497Z,102177.88
2023-09-26T04:24:23.737Z,102180.50
2023-09-26T04:26:51.086Z,102175.16
2023-09-26T04:29:18.636Z,102166.31
2023-09-26T04:31:45.977Z,102167.16
2023-09-26T04:34:13.379Z,102175.94
2023-09-26T04:36:41.577Z,102172.41
2023-09-26T04:39:10.250Z,102174.09
2023-09-26T04:41:37.747Z,102176.72
2023-09-26T04:44:07.833Z,102172.31
2023-09-26T04:46:35.241Z,102175.81
2023-09-26T04:49:02.730Z,102174.06
2023-09-26T04:51:30.191Z,102170.47
2023-09-26T04:53:59.489Z,102168.69
2023-09-26T04:56:26.904Z,102175.72
2023-09-26T04:58:54.310Z,102172.19
2023-09-26T05:01:26.046Z,102176.56
2023-09-26T05:03:54.246Z,102176.53
2023-09-26T05:06:21.825Z,102177.34
2023-09-26T05:08:50.234Z,102172.94
2023-09-26T05:11:17.780Z,102180.00
2023-09-26T05:13:45.757Z,102166.75
2023-09-26T05:16:15.571Z,102175.56
2023-09-26T05:18:43.231Z,102180.00
2023-09-26T05:21:11.049Z,102187.03
2023-09-26T05:23:38.623Z,102182.63
2023-09-26T05:26:11.242Z,102190.56
2023-09-26T05:28:39.059Z,102179.94
2023-09-26T05:31:07.063Z,102185.22
2023-09-26T05:33:35.852Z,102182.59
2023-09-26T05:36:05.695Z,102171.13
2023-09-26T05:38:33.346Z,102163.16
2023-09-26T05:41:00.640Z,102164.94
2023-09-26T05:43:30.820Z,102172.84
2023-09-26T05:45:58.631Z,102174.66
2023-09-26T05:48:26.032Z,102159.66
2023-09-26T05:51:00.903Z,102172.03
2023-09-26T05:53:28.360Z,102174.72
2023-09-26T05:55:57.950Z,102180.00
2023-09-26T05:58:25.570Z,102187.94
2023-09-26T06:00:54.751Z,102182.66
2023-09-26T06:03:22.733Z,102180.91
2023-09-26T06:05:51.776Z,102178.28
2023-09-26T06:08:19.521Z,102180.94
2023-09-26T06:10:54.033Z,102177.41
2023-09-26T06:13:21.884Z,102173.91
2023-09-26T06:15:49.329Z,102180.16
2023-09-26T06:18:16.700Z,102177.59
2023-09-26T06:20:45.842Z,102173.25
2023-09-26T06:23:14.106Z,102171.53
2023-09-26T06:25:54.088Z,102164.53
2023-09-26T06:28:23.219Z,102167.22
2023-09-26T06:30:50.660Z,102174.34
2023-09-26T06:33:18.169Z,102177.94
2023-09-26T06:35:45.513Z,102173.59
2023-09-26T06:38:13.179Z,102172.81
2023-09-26T06:40:41.025Z,102187.03
2023-09-26T06:43:08.691Z,102193.28
2023-09-26T06:45:39.748Z,102178.38
2023-09-26T06:48:08.082Z,102182.88
2023-09-26T06:50:35.407Z,102176.88
2023-09-26T06:53:03.887Z,102176.13
2023-09-26T06:55:31.688Z,102173.59
2023-09-26T06:57:59.073Z,102176.31
2023-09-26T07:00:26.630Z,102188.78
2023-09-26T07:02:54.299Z,102197.72
2023-09-26T07:05:21.839Z,102183.63
2023-09-26T07:07:49.841Z,102184.63
2023-09-26T07:10:17.139Z,102183.88
2023-09-26T07:12:45.577Z,102184.84
2023-09-26T07:15:13.943Z,102188.50
2023-09-26T07:17:43.538Z,102190.34
2023-09-26T07:20:14.887Z,102191.34
2023-09-26T07:22:42.814Z,102183.50
2023-09-26T07:25:12.360Z,102192.41
2023-09-26T07:27:39.766Z,102188.09
2023-09-26T07:30:09.036Z,102188.16
2023-09-26T07:32:36.473Z,102178.41
2023-09-26T07:35:04.874Z,102171.31
2023-09-26T07:37:34.197Z,102166.91
2023-09-26T07:40:04.573Z,102162.44
2023-09-26T07:42:31.890Z,102166.88
2023-09-26T07:45:02.077Z,102171.28
2023-09-26T07:47:29.749Z,102170.38
2023-09-26T07:49:57.223Z,102169.44
2023-09-26T07:52:27.876Z,102161.47
2023-09-26T07:54:55.647Z,102164.13
2023-09-26T07:57:23.083Z,102160.59
2023-09-26T07:59:50.904Z,102163.25
2023-09-26T08:02:19.764Z,102165.03
2023-09-26T08:04:47.553Z,102169.47
2023-09-26T08:07:15.072Z,102168.56
2023-09-26T08:09:42.786Z,102182.72
2023-09-26T08:12:10.151Z,102179.06
2023-09-26T08:14:37.636Z,102170.13
2023-09-26T08:17:05.028Z,102168.28
2023-09-26T08:19:32.829Z,102163.75
2023-09-26T08:22:00.237Z,102151.22
2023-09-26T08:24:27.767Z,102149.44
2023-09-26T08:26:55.775Z,102149.34
2023-09-26T08:29:23.089Z,102159.94
2023-09-26T08:31:51.025Z,102166.97
2023-09-26T08:34:18.836Z,102162.50
2023-09-26T08:36:47.937Z,102162.50
2023-09-26T08:39:15.594Z,102155.41
2023-09-26T08:41:48.661Z,102150.09
2023-09-26T08:44:16.217Z,102142.13
2023-09-26T08:46:45.981Z,102143.94
2023-09-26T08:49:13.750Z,102141.28
2023-09-26T08:51:41.297Z,102149.31
2023-09-26T08:54:09.177Z,102151.09
2023-09-26T08:56:38.149Z,102141.28
2023-09-26T08:59:08.142Z,102145.78
2023-09-26T09:01:35.893Z,102153.84
2023-09-26T09:04:03.614Z,102155.63
2023-09-26T09:06:31.413Z,102147.63
2023-09-26T09:09:11.702Z,102158.25
2023-09-26T09:11:39.230Z,102139.53
2023-09-26T09:14:07.719Z,102144.00
2023-09-26T09:19:02.647Z,102136.00
2023-09-26T09:21:34.572Z,102136.00
2023-09-26T09:24:08.805Z,102136.00
2023-09-26T09:26:37.720Z,102139.50
2023-09-26T09:29:34.576Z,102134.13
2023-09-26T09:32:02.091Z,102122.53
2023-09-26T09:34:29.699Z,102116.25
2023-09-26T09:37:00.397Z,102107.28
2023-09-26T09:39:27.723Z,102102.72
2023-09-26T09:42:02.372Z,102100.84
2023-09-26T09:44:32.147Z,102099.97
2023-09-26T09:47:04.363Z,102095.53
2023-09-26T09:49:41.207Z,102093.69
2023-09-26T09:52:11.608Z,102105.19
2023-09-26T09:54:43.666Z,102113.19
2023-09-26T09:57:11.497Z,102120.31
2023-09-26T09:59:39.745Z,102105.09
2023-09-26T10:02:07.783Z,102104.03
2023-09-26T10:04:39.051Z,102095.78
2023-09-26T10:07:08.173Z,102094.69
2023-09-26T10:09:36.372Z,102086.50
2023-09-26T10:12:04.019Z,102094.38
2023-09-26T10:14:35.998Z,102101.53
2023-09-26T10:17:06.114Z,102085.50
2023-09-26T10:19:50.566Z,102093.50
2023-09-26T10:22:24.941Z,102097.03
2023-09-26T10:24:53.917Z,102087.25
2023-09-26T10:30:28.227Z,102089.78
2023-09-26T10:32:56.609Z,102087.09
2023-09-26T10:35:26.692Z,102075.41
2023-09-26T10:38:24.289Z,102073.56
2023-09-26T10:40:52.709Z,102075.31
2023-09-26T10:45:50.697Z,102069.13
2023-09-26T10:48:20.463Z,102053.09
2023-09-26T10:50:48.931Z,102058.44
2023-09-26T10:53:16.599Z,102058.34
2023-09-26T10:55:45.175Z,102063.59
2023-09-26T10:58:20.675Z,102064.44
2023-09-26T11:00:53.180Z,102060.91
2023-09-26T11:03:20.986Z,102061.88
2023-09-26T11:05:48.933Z,102055.56
2023-09-26T11:11:03.884Z,102069.69
2023-09-26T11:13:31.986Z,102058.09
2023-09-26T11:15:59.782Z,102056.25
2023-09-26T11:18:27.558Z,102061.56
2023-09-26T11:21:02.488Z,102056.16
2023-09-26T11:23:41.329Z,102052.59
2023-09-26T11:26:09.861Z,102045.47
2023-09-26T11:28:37.647Z,102045.47
2023-09-26T11:31:06.596Z,102052.63
2023-09-26T11:33:36.148Z,102043.72
2023-09-26T11:36:05.035Z,102041.03
2023-09-26T11:38:32.443Z,102027.56
2023-09-26T11:40:59.930Z,102028.44
2023-09-26T11:43:27.781Z,102034.63
2023-09-26T11:46:04.863Z,102031.06
2023-09-26T11:48:32.571Z,102021.25
2023-09-26T11:51:00.584Z,102021.31
2023-09-26T11:53:29.828Z,102024.84
2023-09-26T11:55:58.932Z,102032.88
2023-09-26T11:58:26.468Z,102028.41
2023-09-26T12:00:53.985Z,102031.94
2023-09-26T12:03:21.532Z,102036.38
2023-09-26T12:05:49.124Z,102035.47
2023-09-26T12:08:16.591Z,102029.19
2023-09-26T12:10:44.782Z,102018.41
2023-09-26T12:13:12.399Z,102012.13
2023-09-26T12:15:40.033Z,102000.59
2023-09-26T12:18:07.669Z,101999.91
2023-09-26T12:20:35.328Z,101997.28
2023-09-26T12:23:03.758Z,101998.97
2023-09-26T12:25:31.739Z,101997.94
2023-09-26T12:27:59.397Z,101992.44
2023-09-26T12:30:27.011Z,101995.00
2023-09-26T12:32:54.519Z,101997.63
2023-09-26T12:35:22.191Z,101994.84
2023-09-26T12:37:49.669Z,101986.78
2023-09-26T12:40:17.152Z,101985.81
2023-09-26T12:42:44.689Z,101989.28
2023-09-26T12:45:12.504Z,101995.41
2023-09-26T12:47:40.154Z,102004.25
2023-09-26T12:50:11.381Z,101997.06
2023-09-26T12:52:41.143Z,102002.44
2023-09-26T12:55:10.725Z,102005.06
2023-09-26T12:57:39.469Z,101995.06
2023-09-26T13:00:12.450Z,102000.31
2023-09-26T13:02:41.406Z,101994.03
2023-09-26T13:05:09.740Z,101980.63
2023-09-26T13:07:37.235Z,101984.13
2023-09-26T13:10:06.951Z,101984.13
2023-09-26T13:12:37.226Z,101978.75
2023-09-26T13:15:08.086Z,101969.78
2023-09-26T13:17:36.906Z,101969.72
2023-09-26T13:20:06.755Z,101971.53
2023-09-26T13:22:34.232Z,101961.78
2023-09-26T13:25:01.697Z,101975.91
2023-09-26T13:27:29.049Z,101971.19
2023-09-26T13:29:56.430Z,101962.94
2023-09-26T13:32:25.839Z,101960.06
2023-09-26T13:34:53.414Z,101966.28
2023-09-26T13:37:21.102Z,101969.91
2023-09-26T13:39:48.514Z,101969.91
2023-09-26T13:42:15.828Z,101974.31
2023-09-26T13:44:43.416Z,101979.63
2023-09-26T13:47:11.108Z,101979.66
2023-09-26T13:49:38.681Z,101977.94
2023-09-26T13:52:05.946Z,101967.19
2023-09-26T13:54:35.135Z,101968.06
2023-09-26T13:57:03.487Z,101968.00
2023-09-26T13:59:30.789Z,101966.16
2023-09-26T14:01:58.220Z,101967.09
2023-09-26T14:04:25.846Z,101957.34
2023-09-26T14:06:53.465Z,101964.59
2023-09-26T14:09:20.889Z,101971.13
2023-09-26T14:11:48.198Z,101966.00
2023-09-26T14:14:16.709Z,101978.69
2023-09-26T14:16:44.348Z,101981.53
2023-09-26T14:19:12.802Z,101978.03
2023-09-26T14:21:41.042Z,101961.94
2023-09-26T14:24:09.067Z,101952.94
2023-09-26T14:26:36.620Z,101954.63
2023-09-26T14:29:04.307Z,101964.44
2023-09-26T14:31:31.579Z,101959.00
2023-09-26T14:33:58.991Z,101964.44
2023-09-26T14:36:26.550Z,101976.03
2023-09-26T14:38:54.268Z,101977.88
2023-09-26T14:41:21.829Z,101972.66
2023-09-26T14:43:49.537Z,101975.44
2023-09-26T14:46:16.890Z,101959.50
2023-09-26T14:48:44.657Z,101956.91
2023-09-26T14:51:14.855Z,101953.38
2023-09-26T14:53:42.401Z,101947.16
2023-09-26T14:56:10.579Z,101948.94
2023-09-26T14:58:40.026Z,101953.38
2023-09-26T15:01:10.307Z,101954.28
2023-09-26T15:03:38.216Z,101956.91
2023-09-26T15:06:06.760Z,101954.22
2023-09-26T15:08:35.911Z,101946.25
2023-09-26T15:11:03.757Z,101944.50
2023-09-26T15:13:31.086Z,101942.72
2023-09-26T15:16:07.973Z,101955.22
2023-09-26T15:18:35.892Z,101947.25
2023-09-26T15:21:03.692Z,101953.59
2023-09-26T15:23:31.235Z,101959.88
2023-09-26T15:25:58.595Z,101967.09
2023-09-26T15:28:26.232Z,101969.00
2023-09-26T15:30:54.574Z,101958.38
2023-09-26T15:33:21.965Z,101955.81
2023-09-26T15:35:49.469Z,101952.34
2023-09-26T15:38:16.862Z,101948.84
2023-09-26T15:40:44.368Z,101942.69
2023-09-26T15:43:12.059Z,101940.06
2023-09-26T15:45:42.066Z,101935.66
2023-09-26T15:48:09.554Z,101931.25
2023-09-26T15:50:36.925Z,101924.19
2023-09-26T15:53:05.565Z,101928.72
2023-09-26T15:55:33.034Z,101937.72
2023-09-26T15:58:00.555Z,101931.53
2023-09-26T16:00:28.011Z,101925.41
2023-09-26T16:02:55.451Z,101925.50
2023-09-26T16:05:23.121Z,101930.03
2023-09-26T16:07:51.219Z,101939.00
2023-09-26T16:10:19.660Z,101937.28
2023-09-26T16:13:06.421Z,101935.50
2023-09-26T16:15:35.236Z,101932.88
2023-09-26T16:18:03.576Z,101926.69
2023-09-26T16:20:30.964Z,101924.94
2023-09-26T16:22:58.335Z,101928.59
2023-09-26T16:25:25.728Z,101927.75
2023-09-26T16:27:53.028Z,101930.53
2023-09-26T16:30:20.458Z,101927.00
2023-09-26T16:32:47.928Z,101922.59
2023-09-26T16:35:16.063Z,101919.06
2023-09-26T16:37:43.516Z,101916.47
2023-09-26T16:40:11.849Z,101908.50
2023-09-26T16:42:41.433Z,101905.06
2023-09-26T16:45:09.385Z,101906.06
2023-09-26T16:47:37.950Z,101904.38
2023-09-26T16:50:05.760Z,101907.09
2023-09-26T16:52:35.919Z,101904.50
2023-09-26T16:55:04.095Z,101911.69
2023-09-26T16:57:31.624Z,101904.66
2023-09-26T16:59:59.271Z,101904.72
2023-09-26T17:02:26.875Z,101905.72
2023-09-26T17:04:54.929Z,101904.00
2023-09-26T17:07:22.637Z,101904.97
2023-09-26T17:09:51.917Z,101902.31
2023-09-26T17:12:19.501Z,101894.41
2023-09-26T17:14:48.134Z,101890.97
2023-09-26T17:17:15.509Z,101884.81
2023-09-26T17:19:43.175Z,101883.13
2023-09-26T17:22:12.044Z,101875.19
2023-09-26T17:24:39.674Z,101895.72
2023-09-26T17:27:06.942Z,101899.34
2023-09-26T17:29:34.319Z,101892.28
2023-09-26T17:32:01.902Z,101899.44
2023-09-26T17:34:29.598Z,101894.19
2023-09-26T17:36:56.976Z,101896.88
2023-09-26T17:39:25.147Z,101896.97
2023-09-26T17:41:52.718Z,101892.59
2023-09-26T17:44:20.159Z,101893.53
2023-09-26T17:46:50.670Z,101891.88
2023-09-26T17:49:18.404Z,101897.25
2023-09-26T17:51:45.806Z,101894.69
2023-09-26T17:54:13.121Z,101895.63
2023-09-26T17:56:40.937Z,101904.56
2023-09-26T17:59:08.569Z,101915.25
2023-09-26T18:01:35.981Z,101911.75
2023-09-26T18:04:04.007Z,101906.44
2023-09-26T18:06:31.338Z,101918.03
2023-09-26T18:08:58.581Z,101915.38
2023-09-26T18:11:26.161Z,101914.56
2023-09-26T18:13:53.485Z,101923.44
2023-09-26T18:16:20.864Z,101936.81
2023-09-26T18:18:48.348Z,101938.59
2023-09-26T18:21:15.586Z,101941.25
2023-09-26T18:23:46.108Z,101946.59
2023-09-26T18:26:13.498Z,101951.06
2023-09-26T18:28:40.895Z,101955.50
2023-09-26T18:31:08.245Z,101961.75
2023-09-26T18:33:36.057Z,101964.41
2023-09-26T18:36:07.051Z,101961.75
2023-09-26T18:38:36.878Z,101966.22
2023-09-26T18:41:04.971Z,101979.56
2023-09-26T18:43:34.158Z,101970.69
2023-09-26T18:46:01.747Z,101984.03
2023-09-26T18:48:29.090Z,101989.34
2023-09-26T18:51:03.202Z,101973.38
2023-09-26T18:53:30.826Z,101978.75
2023-09-26T18:55:58.299Z,101976.97
2023-09-26T18:58:25.759Z,101977.00
2023-09-26T19:00:53.141Z,101971.66
2023-09-26T19:03:22.050Z,101978.75
2023-09-26T19:05:51.970Z,101972.56
2023-09-26T19:08:19.384Z,101965.47
2023-09-26T19:10:47.145Z,101971.69
2023-09-26T19:13:14.786Z,101970.78
2023-09-26T19:15:42.454Z,101967.22
2023-09-26T19:18:09.882Z,101959.25
2023-09-26T19:20:37.307Z,101976.09
2023-09-26T19:23:04.885Z,101969.88
2023-09-26T19:25:38.754Z,101963.69
2023-09-26T19:28:12.620Z,101971.69
2023-09-26T19:30:42.520Z,101964.59
2023-09-26T19:33:10.096Z,101966.34
2023-09-26T19:35:37.842Z,101965.50
2023-09-26T19:38:06.710Z,101962.84
2023-09-26T19:40:34.201Z,101960.19
2023-09-26T19:43:03.912Z,101968.19
2023-09-26T19:45:33.196Z,101953.13
2023-09-26T19:48:00.809Z,101962.00
2023-09-26T19:50:28.224Z,101955.78
2023-09-26T19:52:55.559Z,101958.44
2023-09-26T19:55:24.322Z,101953.16
2023-09-26T19:57:52.694Z,101974.41
2023-09-26T20:00:20.438Z,101967.34
2023-09-26T20:02:47.920Z,101970.91
2023-09-26T20:05:17.492Z,101969.13
2023-09-26T20:07:45.497Z,101968.25
2023-09-26T20:10:13.118Z,101970.91
2023-09-26T20:12:50.355Z,101975.34
2023-09-26T20:15:24.382Z,101980.69
2023-09-26T20:17:52.623Z,101988.66
2023-09-26T20:20:26.963Z,101988.69
2023-09-26T20:22:58.142Z,101978.03
2023-09-26T20:25:25.866Z,101978.06
2023-09-26T20:27:54.278Z,101982.50
2023-09-26T20:30:22.301Z,101974.53
2023-09-26T20:32:50.324Z,101971.00
2023-09-26T20:35:17.893Z,101969.25
2023-09-26T20:37:45.862Z,101966.56
2023-09-26T20:40:16.149Z,101974.56
2023-09-26T20:42:44.990Z,101978.97
2023-09-26T20:45:13.103Z,101986.97
2023-09-26T20:47:43.464Z,101985.22
2023-09-26T20:50:14.038Z,101978.09
2023-09-26T20:52:42.075Z,101984.31
2023-09-26T20:55:10.032Z,101980.78
2023-09-26T20:57:37.760Z,101978.09
2023-09-26T21:00:05.970Z,101972.78
2023-09-26T21:02:35.028Z,101970.13
2023-09-26T21:05:02.717Z,101963.91
2023-09-26T21:07:30.567Z,101964.81
2023-09-26T21:09:58.942Z,101960.38
2023-09-26T21:12:27.005Z,101948.00
2023-09-26T21:14:54.680Z,101940.00
2023-09-26T21:17:22.134Z,101938.22
2023-09-26T21:19:49.616Z,101930.28
2023-09-26T21:22:17.016Z,101927.63
2023-09-26T21:24:45.132Z,101925.84
2023-09-26T21:27:12.681Z,101927.63
2023-09-26T21:29:39.963Z,101932.94
2023-09-26T21:32:07.462Z,101941.78
2023-09-26T21:34:34.768Z,101940.91
2023-09-26T21:37:02.006Z,101935.59
2023-09-26T21:39:29.285Z,101928.50
2023-09-26T21:41:56.917Z,101932.03
2023-09-26T21:44:24.328Z,101945.31
2023-09-26T21:46:55.396Z,101945.31
2023-09-26T21:49:22.842Z,101955.03
2023-09-26T21:51:50.211Z,101956.81
2023-09-26T21:54:17.699Z,101950.63
2023-09-26T21:56:46.301Z,101950.63
2023-09-26T21:59:13.804Z,101936.44
2023-09-26T22:01:41.389Z,101949.75
2023-09-26T22:04:08.785Z,101953.25
2023-09-26T22:06:36.348Z,101955.94
2023-09-26T22:09:03.958Z,101974.50
2023-09-26T22:11:31.575Z,101971.84
2023-09-26T22:13:58.949Z,101959.44
2023-09-26T22:16:27.812Z,101940.00
2023-09-26T22:18:55.474Z,101933.81
2023-09-26T22:21:22.927Z,101936.44
2023-09-26T22:23:50.612Z,101947.97
2023-09-26T22:26:18.142Z,101940.88
2023-09-26T22:28:45.557Z,101953.28
2023-09-26T22:31:12.965Z,101963.00
2023-09-26T22:33:42.277Z,101958.59
2023-09-26T22:36:09.676Z,101961.25
2023-09-26T22:38:37.049Z,101969.19
2023-09-26T22:41:04.494Z,101975.41
2023-09-26T22:43:31.812Z,101960.31
2023-09-26T22:46:02.118Z,101963.88
2023-09-26T22:48:29.818Z,101971.84
2023-09-26T22:50:57.260Z,101970.06
2023-09-26T22:53:25.519Z,101968.28
2023-09-26T22:55:53.052Z,101952.34
2023-09-26T22:58:20.372Z,101956.78
2023-09-26T23:00:47.738Z,101956.75
2023-09-26T23:03:16.240Z,101964.72
2023-09-26T23:05:43.769Z,101955.88
2023-09-26T23:08:11.627Z,101943.47
2023-09-26T23:10:39.273Z,101954.97
2023-09-26T23:13:09.106Z,101945.22
2023-09-26T23:15:36.666Z,101943.44
2023-09-26T23:18:04.847Z,101936.38
2023-09-26T23:20:39.503Z,101945.19
2023-09-26T23:23:07.974Z,101938.13
2023-09-26T23:25:35.711Z,101930.16
2023-09-26T23:28:06.870Z,101935.44
2023-09-26T23:30:34.197Z,101940.75
2023-09-26T23:33:01.788Z,101934.56
2023-09-26T23:35:30.440Z,101929.25
2023-09-26T23:37:57.806Z,101943.38
2023-09-26T23:40:25.054Z,101947.81
2023-09-26T23:42:53.416Z,101947.78
2023-09-26T23:45:21.199Z,101947.78
2023-09-26T23:47:48.737Z,101943.31
2023-09-26T23:50:16.460Z,101947.72
2023-09-26T23:52:45.335Z,101937.09
2023-09-26T23:55:13.205Z,101938.88
2023-09-26T23:57:42.128Z,101936.22
